Time;durP1;ratioP1;P1;durP2;ratioP2;P2;SDS_P1;SDS_P2;PMS_P1;PMS_P2;Temp;Humidity;BMP_temperature;BMP_pressure;BME280_temperature;BME280_humidity;BME280_pressure;Samples;Min_cycle;Max_cycle;Signal;HPM_P1;HPM_P2
2021/03/11 00:01:17;;;;;;;;;40.75;39.00;;;;;;;;5059088;28;11473;-74
2021/03/11 00:03:44;;;;;;;;;35.50;35.50;;;;;;;;5045698;28;11546;-79
2021/03/11 00:06:11;;;;;;;;;38.00;36.75;;;;;;;;5062531;28;11492;-79
2021/03/11 00:08:38;;;;;;;;;42.25;37.25;;;;;;;;5063673;28;11476;-79
2021/03/11 00:11:04;;;;;;;;;35.00;32.75;;;;;;;;5062432;28;11492;-79
2021/03/11 00:13:32;;;;;;;;;30.50;28.25;;;;;;;;5063577;28;11701;-76
2021/03/11 00:15:59;;;;;;;;;40.00;34.25;;;;;;;;5062889;28;11516;-80
2021/03/11 00:18:26;;;;;;;;;35.75;33.50;;;;;;;;5066724;28;11610;-75
2021/03/11 00:20:53;;;;;;;;;41.75;35.75;;;;;;;;5072239;28;11603;-75
2021/03/11 00:23:20;;;;;;;;;36.25;32.25;;;;;;;;5068570;28;11548;-79
2021/03/11 00:25:46;;;;;;;;;41.50;32.75;;;;;;;;5073495;28;11463;-79
2021/03/11 00:28:13;;;;;;;;;29.50;29.50;;;;;;;;5067261;28;11490;-76
2021/03/11 00:30:41;;;;;;;;;29.50;28.25;;;;;;;;5064998;28;11433;-76
2021/03/11 00:33:08;;;;;;;;;31.25;31.25;;;;;;;;5066061;28;11528;-82
2021/03/11 00:35:35;;;;;;;;;35.00;34.75;;;;;;;;5045919;28;11651;-80
2021/03/11 00:38:02;;;;;;;;;44.00;39.50;;;;;;;;5056242;28;11554;-76
2021/03/11 00:40:29;;;;;;;;;24.00;20.75;;;;;;;;5036362;28;11652;-79
2021/03/11 00:42:56;;;;;;;;;32.50;32.50;;;;;;;;5063562;28;11478;-80
2021/03/11 00:45:23;;;;;;;;;32.50;31.00;;;;;;;;5058706;28;11496;-73
2021/03/11 00:47:51;;;;;;;;;36.50;32.00;;;;;;;;5065012;28;11515;-80
2021/03/11 00:50:20;;;;;;;;;33.75;28.00;;;;;;;;5063308;28;12409;-75
2021/03/11 00:52:47;;;;;;;;;32.75;28.75;;;;;;;;5062643;28;12295;-80
2021/03/11 00:55:15;;;;;;;;;44.25;35.25;;;;;;;;5063298;28;11614;-77
2021/03/11 00:57:42;;;;;;;;;31.75;31.75;;;;;;;;5066555;28;11591;-78
2021/03/11 01:00:11;;;;;;;;;33.25;31.25;;;;;;;;5066393;28;11478;-78
2021/03/11 01:02:38;;;;;;;;;38.75;32.50;;;;;;;;5065694;28;11480;-76
2021/03/11 01:05:07;;;;;;;;;37.50;32.50;;;;;;;;5067177;28;11465;-81
2021/03/11 01:07:34;;;;;;;;;29.50;28.50;;;;;;;;5063664;28;11636;-78
2021/03/11 01:10:01;;;;;;;;;30.00;26.50;;;;;;;;5062195;28;11520;-81
2021/03/11 01:12:28;;;;;;;;;31.00;24.50;;;;;;;;5064679;28;11506;-80
2021/03/11 01:14:55;;;;;;;;;28.75;27.50;;;;;;;;5066926;28;11476;-75
2021/03/11 01:17:22;;;;;;;;;36.00;31.75;;;;;;;;5065925;28;11529;-80
2021/03/11 01:19:48;;;;;;;;;35.75;35.75;;;;;;;;5065658;28;11293;-76
2021/03/11 01:22:16;;;;;;;;;31.00;30.50;;;;;;;;5066574;28;11632;-75
2021/03/11 01:24:43;;;;;;;;;31.00;28.00;;;;;;;;5063587;28;11640;-80
2021/03/11 01:27:10;;;;;;;;;36.25;30.25;;;;;;;;5049695;28;11553;-76
2021/03/11 01:29:37;;;;;;;;;37.25;30.25;;;;;;;;5060971;28;12283;-78
2021/03/11 01:32:04;;;;;;;;;28.25;26.25;;;;;;;;5070447;28;11444;-77
2021/03/11 01:34:31;;;;;;;;;32.50;27.25;;;;;;;;5066823;28;11529;-78
2021/03/11 01:36:58;;;;;;;;;23.50;21.00;;;;;;;;5064754;28;11204;-77
2021/03/11 01:39:26;;;;;;;;;24.75;23.75;;;;;;;;5065368;28;11290;-78
2021/03/11 01:41:53;;;;;;;;;33.00;29.00;;;;;;;;5063808;28;11308;-77
2021/03/11 01:44:20;;;;;;;;;31.00;31.00;;;;;;;;5063602;28;11514;-77
2021/03/11 01:46:47;;;;;;;;;33.25;30.25;;;;;;;;5064097;28;11211;-74
2021/03/11 01:49:14;;;;;;;;;43.50;36.75;;;;;;;;5064804;28;11504;-78
2021/03/11 01:51:41;;;;;;;;;15.25;14.00;;;;;;;;5064939;28;11503;-76
2021/03/11 01:54:08;;;;;;;;;28.00;23.25;;;;;;;;5065164;28;11554;-76
2021/03/11 01:56:37;;;;;;;;;27.75;24.00;;;;;;;;5065303;28;12363;-76
2021/03/11 01:59:04;;;;;;;;;28.00;25.75;;;;;;;;5063652;28;11173;-76
2021/03/11 02:01:31;;;;;;;;;26.00;24.50;;;;;;;;5063173;28;11121;-78
2021/03/11 02:03:58;;;;;;;;;31.25;29.00;;;;;;;;5063891;28;12092;-75
2021/03/11 02:06:25;;;;;;;;;25.00;24.25;;;;;;;;5052562;28;11195;-79
2021/03/11 02:08:52;;;;;;;;;29.25;23.75;;;;;;;;5063044;28;11184;-75
2021/03/11 02:11:23;;;;;;;;;27.75;27.00;;;;;;;;5065115;28;11057;-76
2021/03/11 02:13:54;;;;;;;;;31.25;28.25;;;;;;;;5064406;28;11133;-79
2021/03/11 02:16:28;;;;;;;;;26.50;24.25;;;;;;;;5063246;28;11068;-79
2021/03/11 02:18:59;;;;;;;;;32.00;27.50;;;;;;;;5064323;28;11106;-82
2021/03/11 02:21:30;;;;;;;;;19.25;19.25;;;;;;;;5046543;28;11047;-77
2021/03/11 02:24:35;;;;;;;;;25.25;25.25;;;;;;;;5064946;28;11920;-79
2021/03/11 02:27:16;;;;;;;;;22.75;19.00;;;;;;;;4981211;28;11020;-80
2021/03/11 02:29:46;;;;;;;;;21.25;21.25;;;;;;;;5056255;28;11092;-77
2021/03/11 02:32:13;;;;;;;;;23.25;23.00;;;;;;;;5071091;28;10814;-73
2021/03/11 02:34:43;;;;;;;;;24.75;23.25;;;;;;;;5063833;28;11004;-75
2021/03/11 02:37:13;;;;;;;;;26.75;24.25;;;;;;;;5064900;28;10842;-79
2021/03/11 02:39:44;;;;;;;;;21.50;21.25;;;;;;;;5064246;28;11156;-73
2021/03/11 02:42:12;;;;;;;;;28.00;26.00;;;;;;;;5063112;28;11102;-72
2021/03/11 02:44:40;;;;;;;;;24.25;22.25;;;;;;;;5029888;28;11417;-71
2021/03/11 02:47:09;;;;;;;;;28.25;22.75;;;;;;;;5045911;28;11170;-73
2021/03/11 02:49:36;;;;;;;;;26.75;24.25;;;;;;;;5064340;28;12304;-73
2021/03/11 02:52:04;;;;;;;;;19.75;19.75;;;;;;;;5063419;28;11493;-73
2021/03/11 02:54:32;;;;;;;;;24.75;21.75;;;;;;;;5055705;28;11617;-74
2021/03/11 02:57:00;;;;;;;;;28.50;24.25;;;;;;;;5064046;28;11548;-81
2021/03/11 02:59:28;;;;;;;;;25.50;21.50;;;;;;;;5064281;28;11592;-81
2021/03/11 03:01:55;;;;;;;;;24.75;24.75;;;;;;;;5064587;28;11541;-82
2021/03/11 03:04:23;;;;;;;;;24.50;22.25;;;;;;;;5064243;28;11644;-80
2021/03/11 03:06:50;;;;;;;;;28.00;27.00;;;;;;;;5064880;28;11442;-80
2021/03/11 03:09:19;;;;;;;;;22.75;22.25;;;;;;;;5063080;28;11505;-82
2021/03/11 03:11:47;;;;;;;;;22.50;20.00;;;;;;;;5065255;28;11507;-79
2021/03/11 03:14:13;;;;;;;;;21.75;18.50;;;;;;;;5063572;28;11498;-82
2021/03/11 03:16:42;;;;;;;;;21.00;21.00;;;;;;;;5061802;28;11599;-83
2021/03/11 03:19:11;;;;;;;;;19.50;19.50;;;;;;;;5046599;28;11372;-79
2021/03/11 03:21:42;;;;;;;;;32.50;21.25;;;;;;;;5063022;28;11276;-77
2021/03/11 03:24:10;;;;;;;;;22.50;20.25;;;;;;;;5063727;28;11217;-75
2021/03/11 03:26:37;;;;;;;;;19.50;17.75;;;;;;;;5045077;28;11982;-76
2021/03/11 03:29:05;;;;;;;;;18.25;18.25;;;;;;;;5064917;28;11277;-73
2021/03/11 03:31:32;;;;;;;;;17.75;13.50;;;;;;;;5044391;28;11312;-77
2021/03/11 03:33:59;;;;;;;;;17.75;15.50;;;;;;;;5063630;28;10909;-80
2021/03/11 03:36:26;;;;;;;;;15.25;15.25;;;;;;;;5062438;28;10839;-77
2021/03/11 03:38:55;;;;;;;;;16.75;14.25;;;;;;;;5062835;28;10941;-75
2021/03/11 03:41:23;;;;;;;;;13.00;13.00;;;;;;;;5063900;28;10765;-76
2021/03/11 03:43:51;;;;;;;;;13.00;13.00;;;;;;;;5062294;28;10751;-78
2021/03/11 03:46:22;;;;;;;;;15.25;11.75;;;;;;;;5063158;28;10574;-80
2021/03/11 03:48:51;;;;;;;;;14.50;12.75;;;;;;;;5062429;28;10600;-81
2021/03/11 03:51:22;;;;;;;;;12.25;9.25;;;;;;;;5064926;28;10494;-73
2021/03/11 03:53:52;;;;;;;;;10.25;10.25;;;;;;;;5063725;28;10407;-80
2021/03/11 03:56:24;;;;;;;;;14.75;12.75;;;;;;;;5062131;28;10635;-75
2021/03/11 03:58:56;;;;;;;;;13.75;12.75;;;;;;;;5063072;28;10527;-79
2021/03/11 04:01:23;;;;;;;;;11.00;9.00;;;;;;;;5062582;28;10364;-79
2021/03/11 04:03:51;;;;;;;;;11.75;11.75;;;;;;;;5063533;28;10323;-75
2021/03/11 04:06:18;;;;;;;;;8.50;8.50;;;;;;;;5063696;28;10396;-76
2021/03/11 04:08:46;;;;;;;;;9.00;8.00;;;;;;;;5045162;28;10300;-78
2021/03/11 04:11:13;;;;;;;;;9.50;7.50;;;;;;;;5062901;28;10185;-72
2021/03/11 04:13:42;;;;;;;;;6.00;6.00;;;;;;;;5061733;28;10180;-76
2021/03/11 04:16:09;;;;;;;;;7.00;5.00;;;;;;;;5064298;28;10225;-72
2021/03/11 04:18:37;;;;;;;;;5.00;5.00;;;;;;;;5062841;28;10185;-78
2021/03/11 04:21:06;;;;;;;;;7.00;4.00;;;;;;;;5063929;28;10058;-80
2021/03/11 04:23:34;;;;;;;;;5.50;5.50;;;;;;;;5062871;28;10708;-83
2021/03/11 04:26:01;;;;;;;;;7.00;4.00;;;;;;;;5064148;28;10183;-77
2021/03/11 04:28:28;;;;;;;;;4.50;3.00;;;;;;;;5067747;28;9858;-78
2021/03/11 04:30:56;;;;;;;;;5.50;4.00;;;;;;;;5066126;28;9797;-76
2021/03/11 04:33:24;;;;;;;;;5.00;5.00;;;;;;;;5068053;28;10788;-72
2021/03/11 04:35:51;;;;;;;;;3.00;3.00;;;;;;;;5066995;28;9986;-79
2021/03/11 04:38:18;;;;;;;;;4.00;3.50;;;;;;;;5068032;28;9889;-74
2021/03/11 04:40:45;;;;;;;;;3.00;3.00;;;;;;;;5048725;28;9813;-83
2021/03/11 04:43:12;;;;;;;;;2.75;2.75;;;;;;;;5041245;28;9795;-74
2021/03/11 04:45:40;;;;;;;;;3.00;2.00;;;;;;;;5049428;28;9727;-82
2021/03/11 04:48:09;;;;;;;;;2.00;2.00;;;;;;;;5066954;28;9726;-73
2021/03/11 04:50:38;;;;;;;;;3.00;3.00;;;;;;;;5064755;28;9630;-78
2021/03/11 04:53:05;;;;;;;;;2.75;2.00;;;;;;;;5065603;28;9771;-80
2021/03/11 04:55:32;;;;;;;;;2.50;2.50;;;;;;;;5068022;28;9724;-80
2021/03/11 04:57:59;;;;;;;;;2.00;2.00;;;;;;;;5066221;28;10133;-74
2021/03/11 05:00:27;;;;;;;;;1.00;1.00;;;;;;;;5066485;28;9412;-83
2021/03/11 05:02:55;;;;;;;;;1.25;1.25;;;;;;;;5066427;28;9471;-78
2021/03/11 05:05:32;;;;;;;;;2.00;2.00;;;;;;;;5066980;28;9525;-77
2021/03/11 05:07:58;;;;;;;;;1.00;1.00;;;;;;;;5067164;28;9389;-79
2021/03/11 05:10:25;;;;;;;;;3.00;1.00;;;;;;;;5063202;28;9435;-77
2021/03/11 05:12:53;;;;;;;;;1.33;1.33;;;;;;;;5065300;28;9337;-76
2021/03/11 05:15:20;;;;;;;;;1.00;1.00;;;;;;;;5066965;28;9476;-75
2021/03/11 05:17:46;;;;;;;;;1.75;1.75;;;;;;;;5068184;28;9345;-76
2021/03/11 05:20:14;;;;;;;;;1.00;1.00;;;;;;;;5059611;28;10268;-82
2021/03/11 05:22:42;;;;;;;;;2.00;1.00;;;;;;;;5065334;28;9282;-74
2021/03/11 05:25:11;;;;;;;;;2.00;0.67;;;;;;;;5066260;28;9329;-75
2021/03/11 05:27:38;;;;;;;;;1.67;1.67;;;;;;;;5063505;28;9382;-77
2021/03/11 05:30:07;;;;;;;;;1.00;1.00;;;;;;;;5060517;28;9314;-75
2021/03/11 05:32:34;;;;;;;;;1.00;1.00;;;;;;;;5065509;28;9421;-76
2021/03/11 05:35:01;;;;;;;;;1.00;1.00;;;;;;;;5066009;28;9332;-74
2021/03/11 05:37:28;;;;;;;;;2.00;2.00;;;;;;;;5065824;28;9275;-75
2021/03/11 05:39:57;;;;;;;;;1.00;1.00;;;;;;;;5064963;28;9250;-78
2021/03/11 05:42:24;;;;;;;;;3.00;3.00;;;;;;;;5062016;28;9170;-76
2021/03/11 05:44:52;;;;;;;;;1.00;1.00;;;;;;;;5047265;28;9391;-78
2021/03/11 05:47:20;;;;;;;;;2.00;2.00;;;;;;;;5066359;28;9201;-77
2021/03/11 05:49:47;;;;;;;;;1.00;1.00;;;;;;;;5065132;28;9263;-76
2021/03/11 05:52:15;;;;;;;;;1.00;1.00;;;;;;;;5066418;28;9312;-74
2021/03/11 05:54:45;;;;;;;;;0.00;0.00;;;;;;;;5064520;28;9294;-75
2021/03/11 05:57:12;;;;;;;;;4.00;1.00;;;;;;;;5065391;28;9336;-77
2021/03/11 05:59:39;;;;;;;;;1.00;1.00;;;;;;;;5065585;28;9202;-77
2021/03/11 06:02:08;;;;;;;;;2.00;0.00;;;;;;;;5064794;28;9079;-73
2021/03/11 06:04:36;;;;;;;;;0.67;0.67;;;;;;;;5065635;28;9044;-82
2021/03/11 06:07:03;;;;;;;;;1.33;1.00;;;;;;;;5065331;28;9167;-78
2021/03/11 06:09:31;;;;;;;;;0.00;0.00;;;;;;;;5065654;28;9058;-78
2021/03/11 06:11:57;;;;;;;;;1.00;1.00;;;;;;;;5061843;28;9021;-78
2021/03/11 06:14:27;;;;;;;;;0.50;0.50;;;;;;;;5062022;28;9038;-79
2021/03/11 06:17:00;;;;;;;;;0.00;0.00;;;;;;;;5063020;28;8848;-78
2021/03/11 06:19:28;;;;;;;;;1.00;1.00;;;;;;;;5060392;28;9635;-75
2021/03/11 06:21:55;;;;;;;;;0.00;0.00;;;;;;;;5064205;28;9825;-73
2021/03/11 06:24:22;;;;;;;;;0.00;0.00;;;;;;;;5064502;28;9889;-78
2021/03/11 06:26:49;;;;;;;;;0.00;0.00;;;;;;;;5065370;28;8892;-75
2021/03/11 06:29:17;;;;;;;;;0.00;0.00;;;;;;;;5074474;28;8983;-75
2021/03/11 06:31:45;;;;;;;;;0.00;0.00;;;;;;;;5066218;28;8836;-76
2021/03/11 06:34:20;;;;;;;;;0.00;0.00;;;;;;;;5057325;28;9024;-73
2021/03/11 06:36:46;;;;;;;;;0.00;0.00;;;;;;;;5046867;28;8872;-74
2021/03/11 06:39:25;;;;;;;;;0.75;0.75;;;;;;;;5064778;28;8991;-73
2021/03/11 06:41:52;;;;;;;;;0.00;0.00;;;;;;;;5063117;28;8860;-75
2021/03/11 06:44:19;;;;;;;;;0.00;0.00;;;;;;;;5065176;28;8886;-75
2021/03/11 06:47:01;;;;;;;;;0.75;0.00;;;;;;;;5063697;28;8888;-76
2021/03/11 06:49:28;;;;;;;;;0.00;0.00;;;;;;;;5064958;28;9010;-75
2021/03/11 06:52:12;;;;;;;;;0.75;0.75;;;;;;;;5064402;28;9711;-75
2021/03/11 06:54:57;;;;;;;;;1.00;0.00;;;;;;;;5063888;28;8892;-76
2021/03/11 06:57:31;;;;;;;;;0.00;0.00;;;;;;;;5045613;28;10113;-71
2021/03/11 06:59:58;;;;;;;;;0.00;0.00;;;;;;;;5056273;28;9061;-69
2021/03/11 07:02:29;;;;;;;;;2.33;0.00;;;;;;;;5063300;28;8987;-70
2021/03/11 07:04:57;;;;;;;;;0.00;0.00;;;;;;;;5057029;28;9138;-71
2021/03/11 07:07:25;;;;;;;;;0.00;0.00;;;;;;;;5063304;28;9130;-70
2021/03/11 07:09:53;;;;;;;;;0.00;0.00;;;;;;;;5066933;28;9126;-71
2021/03/11 07:12:21;;;;;;;;;0.00;0.00;;;;;;;;5064647;28;9044;-70
2021/03/11 07:14:49;;;;;;;;;0.00;0.00;;;;;;;;5065920;28;9100;-71
2021/03/11 07:17:20;;;;;;;;;0.00;0.00;;;;;;;;5063884;28;9328;-70
2021/03/11 07:20:10;;;;;;;;;0.00;0.00;;;;;;;;5064287;28;9360;-71
2021/03/11 07:22:38;;;;;;;;;0.00;0.00;;;;;;;;5065334;28;9378;-72
2021/03/11 07:25:24;;;;;;;;;1.00;1.00;;;;;;;;5064294;28;9622;-70
2021/03/11 07:27:52;;;;;;;;;0.00;0.00;;;;;;;;5065378;28;9959;-71
2021/03/11 07:30:19;;;;;;;;;0.00;0.00;;;;;;;;5053109;28;10024;-73
2021/03/11 07:32:47;;;;;;;;;0.00;0.00;;;;;;;;5077073;28;10028;-73
2021/03/11 07:35:17;;;;;;;;;0.25;0.00;;;;;;;;5065169;28;10639;-73
2021/03/11 07:37:50;;;;;;;;;0.00;0.00;;;;;;;;5064509;28;10025;-73
2021/03/11 07:40:17;;;;;;;;;0.75;0.00;;;;;;;;5064175;28;9956;-71
2021/03/11 07:42:45;;;;;;;;;0.00;0.00;;;;;;;;5058306;28;10078;-72
2021/03/11 07:45:13;;;;;;;;;1.75;1.00;;;;;;;;5060755;28;9858;-69
2021/03/11 07:47:41;;;;;;;;;1.00;1.00;;;;;;;;5061296;28;10035;-72
2021/03/11 07:50:11;;;;;;;;;0.75;0.75;;;;;;;;5064112;28;9867;-71
2021/03/11 07:52:39;;;;;;;;;0.00;0.00;;;;;;;;5064057;28;10073;-72
2021/03/11 07:55:08;;;;;;;;;1.00;1.00;;;;;;;;5062863;28;9725;-72
2021/03/11 07:57:42;;;;;;;;;0.00;0.00;;;;;;;;5064409;28;9483;-72
2021/03/11 08:00:11;;;;;;;;;0.00;0.00;;;;;;;;5051933;28;9472;-72
2021/03/11 08:02:44;;;;;;;;;0.00;0.00;;;;;;;;5059189;28;9437;-71
2021/03/11 08:05:12;;;;;;;;;0.00;0.00;;;;;;;;5067891;28;9417;-72
2021/03/11 08:07:40;;;;;;;;;0.00;0.00;;;;;;;;5068799;28;10357;-71
2021/03/11 08:10:21;;;;;;;;;0.00;0.00;;;;;;;;5054559;28;9560;-70
2021/03/11 08:12:47;;;;;;;;;0.00;0.00;;;;;;;;5055965;28;9364;-70
2021/03/11 08:15:32;;;;;;;;;0.00;0.00;;;;;;;;5068068;28;9194;-70
2021/03/11 08:18:01;;;;;;;;;1.00;0.00;;;;;;;;5067547;28;9112;-71
2021/03/11 08:20:39;;;;;;;;;0.00;0.00;;;;;;;;5068322;28;9132;-72
2021/03/11 08:23:13;;;;;;;;;0.33;0.00;;;;;;;;5067877;28;9101;-70
2021/03/11 08:25:47;;;;;;;;;0.00;0.00;;;;;;;;5049598;28;8984;-69
2021/03/11 08:28:44;;;;;;;;;1.50;0.00;;;;;;;;5077625;28;8884;-70
2021/03/11 08:31:11;;;;;;;;;0.00;0.00;;;;;;;;5023523;28;8804;-70
2021/03/11 08:33:56;;;;;;;;;0.00;0.00;;;;;;;;5068193;28;8872;-70
2021/03/11 08:36:38;;;;;;;;;0.00;0.00;;;;;;;;5067312;28;8849;-69
2021/03/11 08:39:34;;;;;;;;;0.00;0.00;;;;;;;;5058087;28;8876;-70
2021/03/11 08:42:56;;;;;;;;;0.50;0.00;;;;;;;;5044081;28;8864;-70
2021/03/11 08:45:58;;;;;;;;;2.00;0.00;;;;;;;;5063936;28;8944;-70
2021/03/11 08:48:26;;;;;;;;;0.00;0.00;;;;;;;;5063594;28;8916;-71
2021/03/11 08:50:54;;;;;;;;;0.00;0.00;;;;;;;;5067087;28;8868;-69
2021/03/11 08:53:44;;;;;;;;;0.00;0.00;;;;;;;;5062287;28;8845;-70
2021/03/11 08:56:53;;;;;;;;;0.25;0.00;;;;;;;;5066423;28;8879;-70
2021/03/11 08:59:21;;;;;;;;;1.00;0.00;;;;;;;;5020220;28;8959;-70
2021/03/11 09:01:49;;;;;;;;;0.25;0.00;;;;;;;;5064953;28;8816;-69
2021/03/11 09:04:41;;;;;;;;;2.00;0.25;;;;;;;;5065902;28;8880;-69
2021/03/11 09:07:12;;;;;;;;;0.00;0.00;;;;;;;;5061740;28;8902;-69
2021/03/11 09:09:42;;;;;;;;;0.00;0.00;;;;;;;;5064910;28;8871;-70
2021/03/11 09:12:11;;;;;;;;;1.00;1.00;;;;;;;;5066717;28;8852;-70
2021/03/11 09:14:39;;;;;;;;;0.00;0.00;;;;;;;;5063976;28;8882;-70
2021/03/11 09:17:09;;;;;;;;;1.00;0.00;;;;;;;;5065690;28;9658;-70
2021/03/11 09:19:41;;;;;;;;;0.00;0.00;;;;;;;;5065746;28;8859;-69
2021/03/11 09:22:29;;;;;;;;;0.00;0.00;;;;;;;;5064983;28;8920;-70
2021/03/11 09:25:09;;;;;;;;;0.00;0.00;;;;;;;;5065440;28;8880;-69
2021/03/11 09:27:37;;;;;;;;;0.50;0.50;;;;;;;;5072020;28;8865;-69
2021/03/11 09:30:08;;;;;;;;;0.75;0.00;;;;;;;;5065229;28;8886;-70
2021/03/11 09:32:36;;;;;;;;;0.00;0.00;;;;;;;;5065315;28;8860;-69
2021/03/11 09:35:07;;;;;;;;;0.00;0.00;;;;;;;;5058593;28;8882;-69
2021/03/11 09:37:51;;;;;;;;;0.00;0.00;;;;;;;;5056709;28;8880;-69
2021/03/11 09:40:34;;;;;;;;;0.00;0.00;;;;;;;;5062085;28;8924;-69
2021/03/11 09:43:11;;;;;;;;;0.75;0.75;;;;;;;;5063445;28;8856;-70
2021/03/11 09:45:52;;;;;;;;;1.00;0.25;;;;;;;;5046558;28;8894;-69
2021/03/11 09:48:21;;;;;;;;;2.25;0.25;;;;;;;;5057217;28;8849;-68
2021/03/11 09:51:00;;;;;;;;;0.50;0.00;;;;;;;;5060147;28;8896;-69
2021/03/11 09:53:34;;;;;;;;;2.25;0.75;;;;;;;;5064280;28;8860;-70
2021/03/11 09:56:01;;;;;;;;;0.00;0.00;;;;;;;;5062807;28;8883;-70
2021/03/11 09:58:29;;;;;;;;;0.00;0.00;;;;;;;;5064727;28;8896;-70
2021/03/11 10:00:57;;;;;;;;;2.50;0.00;;;;;;;;5063633;28;8813;-69
2021/03/11 10:03:26;;;;;;;;;0.75;0.75;;;;;;;;5065038;28;8886;-69
2021/03/11 10:05:55;;;;;;;;;1.00;0.00;;;;;;;;5064396;28;8864;-69
2021/03/11 10:08:27;;;;;;;;;2.00;0.00;;;;;;;;5065657;28;10069;-70
2021/03/11 10:11:07;;;;;;;;;2.00;1.00;;;;;;;;5063730;28;8884;-69
2021/03/11 10:13:38;;;;;;;;;0.00;0.00;;;;;;;;5064495;28;8864;-69
2021/03/11 10:16:06;;;;;;;;;0.00;0.00;;;;;;;;5062123;28;8996;-69
2021/03/11 10:18:34;;;;;;;;;4.50;1.00;;;;;;;;5063641;28;8966;-69
2021/03/11 10:21:11;;;;;;;;;2.00;0.00;;;;;;;;5064492;28;8894;-69
2021/03/11 10:23:38;;;;;;;;;1.25;1.00;;;;;;;;5063725;28;8880;-69
2021/03/11 10:26:15;;;;;;;;;0.50;0.50;;;;;;;;5064324;28;8864;-69
2021/03/11 10:28:43;;;;;;;;;2.00;1.00;;;;;;;;5067561;28;8852;-69
2021/03/11 10:31:12;;;;;;;;;2.00;0.25;;;;;;;;5063472;28;8882;-69
2021/03/11 10:33:41;;;;;;;;;1.00;1.00;;;;;;;;5072928;28;8860;-69
2021/03/11 10:36:16;;;;;;;;;2.00;2.00;;;;;;;;5063444;28;8902;-69
2021/03/11 10:38:46;;;;;;;;;4.75;1.00;;;;;;;;5064894;28;8868;-69
2021/03/11 10:41:15;;;;;;;;;0.25;0.25;;;;;;;;5060519;28;8868;-69
2021/03/11 10:43:43;;;;;;;;;0.25;0.25;;;;;;;;5057932;28;8852;-69
2021/03/11 10:46:17;;;;;;;;;1.75;0.00;;;;;;;;5064008;28;8870;-69
2021/03/11 10:48:50;;;;;;;;;2.25;1.25;;;;;;;;5063108;28;9721;-68
2021/03/11 10:51:18;;;;;;;;;1.75;1.00;;;;;;;;5064448;28;9247;-69
2021/03/11 10:53:45;;;;;;;;;1.50;1.00;;;;;;;;5063588;28;8959;-69
2021/03/11 10:56:12;;;;;;;;;0.00;0.00;;;;;;;;5064514;28;8856;-69
2021/03/11 10:58:40;;;;;;;;;0.00;0.00;;;;;;;;5062953;28;8929;-70
2021/03/11 11:01:09;;;;;;;;;0.75;0.75;;;;;;;;5063540;28;8930;-69
2021/03/11 11:03:37;;;;;;;;;2.00;0.00;;;;;;;;5063587;28;9594;-69
2021/03/11 11:06:04;;;;;;;;;3.50;0.00;;;;;;;;5063552;28;8877;-67
2021/03/11 11:08:32;;;;;;;;;1.75;1.00;;;;;;;;5064591;28;9725;-69
2021/03/11 11:11:01;;;;;;;;;1.25;1.00;;;;;;;;5061401;28;8898;-68
2021/03/11 11:13:27;;;;;;;;;0.25;0.25;;;;;;;;5064005;28;8894;-69
2021/03/11 11:15:55;;;;;;;;;2.50;1.00;;;;;;;;5062615;28;8856;-69
2021/03/11 11:18:25;;;;;;;;;0.25;0.25;;;;;;;;5064009;28;8995;-71
2021/03/11 11:20:52;;;;;;;;;0.00;0.00;;;;;;;;5063039;28;9622;-69
2021/03/11 11:23:19;;;;;;;;;2.00;0.25;;;;;;;;5063002;28;8857;-69
2021/03/11 11:25:46;;;;;;;;;0.50;0.25;;;;;;;;5063947;28;8857;-70
2021/03/11 11:28:13;;;;;;;;;1.75;0.50;;;;;;;;5067891;28;8898;-69
2021/03/11 11:30:41;;;;;;;;;1.25;1.25;;;;;;;;5063126;28;8807;-70
2021/03/11 11:33:09;;;;;;;;;3.00;1.00;;;;;;;;5057352;28;8894;-71
2021/03/11 11:35:36;;;;;;;;;0.00;0.00;;;;;;;;5063681;28;8856;-70
2021/03/11 11:38:04;;;;;;;;;0.00;0.00;;;;;;;;5064340;28;8851;-69
2021/03/11 11:40:31;;;;;;;;;0.00;0.00;;;;;;;;5064117;28;8898;-71
2021/03/11 11:42:59;;;;;;;;;0.50;0.50;;;;;;;;5062986;28;8860;-70
2021/03/11 11:45:26;;;;;;;;;1.75;1.00;;;;;;;;5064101;28;9007;-71
2021/03/11 11:47:53;;;;;;;;;0.00;0.00;;;;;;;;5066780;28;8868;-71
2021/03/11 11:50:20;;;;;;;;;2.75;0.75;;;;;;;;5062547;28;8933;-72
2021/03/11 11:52:47;;;;;;;;;0.00;0.00;;;;;;;;5063110;28;8994;-70
2021/03/11 11:55:15;;;;;;;;;3.00;0.00;;;;;;;;5061175;28;8871;-69
2021/03/11 11:57:42;;;;;;;;;1.50;0.00;;;;;;;;5061958;28;8881;-70
2021/03/11 12:00:12;;;;;;;;;5.25;1.00;;;;;;;;5062704;28;8961;-69
2021/03/11 12:02:38;;;;;;;;;1.50;0.00;;;;;;;;5060755;28;8902;-68
2021/03/11 12:05:07;;;;;;;;;2.50;0.00;;;;;;;;5061312;28;8968;-71
2021/03/11 12:07:35;;;;;;;;;0.00;0.00;;;;;;;;5060070;28;8882;-70
2021/03/11 12:10:02;;;;;;;;;1.00;0.00;;;;;;;;5062331;28;8859;-68
2021/03/11 12:12:30;;;;;;;;;3.00;0.00;;;;;;;;5060709;28;8860;-68
2021/03/11 12:14:57;;;;;;;;;0.25;0.25;;;;;;;;5057414;28;8867;-68
2021/03/11 12:17:24;;;;;;;;;0.75;0.00;;;;;;;;5054022;28;8852;-69
2021/03/11 12:19:51;;;;;;;;;0.50;0.00;;;;;;;;5061563;28;8867;-72
2021/03/11 12:22:17;;;;;;;;;1.00;1.00;;;;;;;;5062179;28;9057;-70
2021/03/11 12:24:44;;;;;;;;;1.50;0.00;;;;;;;;5057983;28;10014;-69
2021/03/11 12:27:11;;;;;;;;;1.00;0.00;;;;;;;;5064473;28;9228;-70
2021/03/11 12:29:39;;;;;;;;;2.75;0.00;;;;;;;;5060254;28;8852;-69
2021/03/11 12:32:06;;;;;;;;;1.75;1.50;;;;;;;;5065178;28;8795;-70
2021/03/11 12:34:33;;;;;;;;;1.00;1.00;;;;;;;;5052685;28;8872;-70
2021/03/11 12:37:00;;;;;;;;;1.75;0.00;;;;;;;;5062336;28;8890;-70
2021/03/11 12:39:27;;;;;;;;;1.25;0.00;;;;;;;;5062718;28;8884;-70
2021/03/11 12:41:53;;;;;;;;;0.75;0.75;;;;;;;;5069798;28;8890;-71
2021/03/11 12:44:20;;;;;;;;;0.00;0.00;;;;;;;;5069106;28;8878;-71
2021/03/11 12:46:48;;;;;;;;;0.00;0.00;;;;;;;;5061890;28;8876;-70
2021/03/11 12:49:14;;;;;;;;;1.50;0.00;;;;;;;;5059229;28;8851;-71
2021/03/11 12:51:41;;;;;;;;;0.00;0.00;;;;;;;;5066833;28;8856;-71
2021/03/11 12:54:08;;;;;;;;;0.75;0.00;;;;;;;;5068165;28;8974;-70
2021/03/11 12:56:35;;;;;;;;;3.75;1.75;;;;;;;;5067122;28;8870;-71
2021/03/11 12:59:02;;;;;;;;;0.75;0.75;;;;;;;;5065395;28;8890;-71
2021/03/11 13:01:29;;;;;;;;;0.25;0.00;;;;;;;;5066047;28;8943;-70
2021/03/11 13:03:57;;;;;;;;;0.00;0.00;;;;;;;;5064786;28;8964;-71
2021/03/11 13:06:23;;;;;;;;;0.00;0.00;;;;;;;;5066845;28;8860;-71
2021/03/11 13:08:50;;;;;;;;;0.00;0.00;;;;;;;;5064594;28;8879;-70
2021/03/11 13:11:17;;;;;;;;;0.50;0.50;;;;;;;;5065912;28;8880;-70
2021/03/11 13:13:44;;;;;;;;;1.75;0.25;;;;;;;;5063032;28;8973;-70
2021/03/11 13:16:11;;;;;;;;;1.00;1.00;;;;;;;;5042049;28;8847;-70
2021/03/11 13:18:38;;;;;;;;;1.25;1.25;;;;;;;;5062901;28;8929;-70
2021/03/11 13:21:06;;;;;;;;;2.00;0.00;;;;;;;;5058888;28;8856;-70
2021/03/11 13:23:33;;;;;;;;;0.00;0.00;;;;;;;;5059986;28;8868;-70
2021/03/11 13:26:00;;;;;;;;;0.50;0.00;;;;;;;;5064386;28;8982;-70
2021/03/11 13:28:27;;;;;;;;;1.00;1.00;;;;;;;;5069372;28;9016;-70
2021/03/11 13:30:54;;;;;;;;;0.25;0.25;;;;;;;;5063442;28;9749;-71
2021/03/11 13:33:21;;;;;;;;;0.00;0.00;;;;;;;;5063941;28;8852;-70
2021/03/11 13:35:48;;;;;;;;;0.25;0.25;;;;;;;;5065602;28;8848;-70
2021/03/11 13:38:15;;;;;;;;;0.25;0.00;;;;;;;;5064109;28;8857;-70
2021/03/11 13:40:42;;;;;;;;;2.50;0.75;;;;;;;;5065210;28;8852;-70
2021/03/11 13:43:10;;;;;;;;;0.00;0.00;;;;;;;;5062876;28;8860;-70
2021/03/11 13:45:36;;;;;;;;;0.00;0.00;;;;;;;;5062977;28;8868;-70
2021/03/11 13:48:04;;;;;;;;;0.00;0.00;;;;;;;;5064668;28;8999;-70
2021/03/11 13:50:30;;;;;;;;;0.75;0.75;;;;;;;;5063141;28;8860;-69
2021/03/11 13:52:57;;;;;;;;;1.00;1.00;;;;;;;;5064763;28;8872;-69
2021/03/11 13:55:25;;;;;;;;;0.00;0.00;;;;;;;;5060778;28;8892;-69
2021/03/11 13:57:51;;;;;;;;;0.00;0.00;;;;;;;;5057693;28;8863;-70
2021/03/11 14:00:19;;;;;;;;;0.00;0.00;;;;;;;;5059543;28;8985;-70
2021/03/11 14:02:46;;;;;;;;;0.00;0.00;;;;;;;;5064040;28;9047;-70
2021/03/11 14:05:14;;;;;;;;;0.00;0.00;;;;;;;;5064257;28;8852;-70
2021/03/11 14:07:41;;;;;;;;;2.50;0.00;;;;;;;;5064472;28;8856;-70
2021/03/11 14:10:09;;;;;;;;;0.00;0.00;;;;;;;;5062523;28;8876;-70
2021/03/11 14:12:37;;;;;;;;;0.00;0.00;;;;;;;;5061682;28;8882;-70
2021/03/11 14:15:05;;;;;;;;;0.00;0.00;;;;;;;;5061854;28;8862;-70
2021/03/11 14:17:31;;;;;;;;;0.00;0.00;;;;;;;;5060694;28;8853;-70
2021/03/11 14:19:59;;;;;;;;;0.00;0.00;;;;;;;;5062650;28;8914;-71
2021/03/11 14:22:26;;;;;;;;;1.00;0.00;;;;;;;;5060973;28;9050;-71
2021/03/11 14:24:53;;;;;;;;;0.00;0.00;;;;;;;;5063417;28;8896;-71
2021/03/11 14:27:25;;;;;;;;;0.00;0.00;;;;;;;;5062224;28;9603;-71
2021/03/11 14:29:53;;;;;;;;;0.00;0.00;;;;;;;;5060905;28;8863;-71
2021/03/11 14:32:20;;;;;;;;;0.00;0.00;;;;;;;;5070667;28;8811;-71
2021/03/11 14:34:47;;;;;;;;;0.00;0.00;;;;;;;;5060635;28;8860;-70
2021/03/11 14:37:14;;;;;;;;;1.00;0.00;;;;;;;;5059405;28;9429;-71
2021/03/11 14:39:41;;;;;;;;;1.00;0.00;;;;;;;;5062325;28;8848;-71
2021/03/11 14:42:08;;;;;;;;;0.00;0.00;;;;;;;;5060671;28;8852;-73
2021/03/11 14:44:34;;;;;;;;;1.00;0.00;;;;;;;;5060323;28;8968;-71
2021/03/11 14:47:03;;;;;;;;;0.00;0.00;;;;;;;;5056163;28;9080;-69
2021/03/11 14:49:30;;;;;;;;;1.25;0.00;;;;;;;;5043041;28;9253;-69
2021/03/11 14:51:57;;;;;;;;;0.00;0.00;;;;;;;;5062142;28;9422;-70
2021/03/11 14:54:24;;;;;;;;;0.00;0.00;;;;;;;;5064124;28;9267;-69
2021/03/11 14:56:52;;;;;;;;;1.00;0.00;;;;;;;;5062560;28;9634;-69
2021/03/11 14:59:19;;;;;;;;;0.33;0.33;;;;;;;;5063790;28;9211;-69